Stafford, VA (22554)

2:04 AM EDT on September 02, 2015 (GMT -0400)
Park Ridge/Woods (The Wireman's) | | Change Station
CLOSE
Current Station
Personal Weather Station
Location: Stafford, VA
Elevation: 249 ft
Nearby Weather Stations

Elev 249 ft 38.46 °N, 77.45 °W | Updated 3 seconds ago

Clear
Clear
72.0 °F
Feels Like 72.0 °F
N
0.0
Wind Variable Wind from WSW
Gusts 0.0 mph

Today
High -- | Low -- °F
--% Chance of Precip.
Yesterday
High -- | Low -- °F
Precip. -- in
6:39 AM 7:38 PM
Waning Gibbous, 83% visible
Pressure 30.08 in
Visibility 2.5 miles
Clouds Clear
Dew Point 69 °F
Humidity 92%
Rainfall 0.00 in
Snow Depth Not available.
UV 0 out of 12
Pollen 9.90 out of 12
Air Quality Not available.
Flu Activity Not available.
METAR KRMN 020555Z AUTO 00000KT 2 1/2SM BR CLR 20/20 A3008 RMK AO2 T02030196 10249 20200
Pressure 30.08 in
Visibility 2.5 miles
Clouds Clear
Dew Point 69 °F
Humidity 92%
Rainfall 0.00 in
Snow Depth Not available.
UV 0 out of 12
Pollen 9.90 out of 12
Air Quality Not available.
Flu Activity Not available.
METAR KRMN 020555Z AUTO 00000KT 2 1/2SM BR CLR 20/20 A3008 RMK AO2 T02030196 10249 20200

10-Day Weather Forecast

×

Almanac

Astronomy

Sep. 02, 2015 Rise Set
Actual Time
Civil Twilight
Nautical Twilight
Astronomical Twilight
Moon
Length of Visible Light
Length of Day
Tomorrow will be .
, % of the Moon is Illuminated

Today's Extremes

State Highs State Lows

Community

WunderPhotos

Upload Photos

1,851,709 photos uploaded!

WunderBlogs® & News

Nearby

Air Quality

  Air Quality AQ Index Pollutant
Not available.

Snow Depth

Station Depth Elevation

Earthquake Activity

City Distance Mag. Time & Date
Minimum magnitude displayed is 2.5.

Coastal Water Temperatures

Place Temperature

Stations

Nearby Weather Stations

Station Location Temp. Windchill Dew Point Humidity Wind Precip. Elev Updated Type